Time;durP1;ratioP1;P1;durP2;ratioP2;P2;SDS_P1;SDS_P2;PMS_P1;PMS_P2;Temp;Humidity;BMP_temperature;BMP_pressure;BME280_temperature;BME280_humidity;BME280_pressure;Samples;Min_cycle;Max_cycle;Signal;HPM_P1;HPM_P2
2023/10/25 00:00:12;;;;;;;2.15;1.20;;;22.80;44.80;;;;;;5011872;28;20281;-40
2023/10/25 00:02:38;;;;;;;1.20;1.10;;;22.80;44.80;;;;;;5009227;28;20207;-40
2023/10/25 00:05:04;;;;;;;1.90;1.10;;;22.80;44.80;;;;;;5012083;28;20206;-41
2023/10/25 00:07:31;;;;;;;1.77;1.10;;;22.70;44.70;;;;;;5013765;28;20298;-40
2023/10/25 00:10:00;;;;;;;2.28;0.93;;;22.80;44.80;;;;;;5013438;28;20207;-40
2023/10/25 00:12:27;;;;;;;1.15;1.05;;;22.80;44.80;;;;;;5013148;28;20645;-40
2023/10/25 00:14:53;;;;;;;1.83;1.20;;;22.70;44.70;;;;;;5013128;28;20789;-41
2023/10/25 00:17:20;;;;;;;1.60;1.13;;;22.70;44.70;;;;;;5014345;28;20225;-41
2023/10/25 00:19:46;;;;;;;1.35;1.13;;;22.70;44.70;;;;;;5009665;28;20302;-41
2023/10/25 00:22:13;;;;;;;1.35;1.08;;;22.80;44.80;;;;;;5012826;28;20213;-40
2023/10/25 00:24:39;;;;;;;1.05;0.95;;;22.80;44.80;;;;;;5010773;28;20203;-40
2023/10/25 00:27:06;;;;;;;1.17;1.10;;;22.80;44.80;;;;;;5014147;28;20211;-40
2023/10/25 00:29:32;;;;;;;1.73;1.20;;;22.70;44.70;;;;;;5014349;28;20211;-40
2023/10/25 00:31:59;;;;;;;1.15;1.00;;;22.70;44.70;;;;;;5013699;28;20223;-40
2023/10/25 00:34:25;;;;;;;1.48;1.25;;;22.70;44.70;;;;;;5013287;28;20254;-40
2023/10/25 00:36:52;;;;;;;1.42;1.13;;;22.80;44.80;;;;;;5010382;28;20207;-40
2023/10/25 00:39:18;;;;;;;2.03;1.40;;;22.70;44.70;;;;;;5012222;28;20760;-40
2023/10/25 00:41:45;;;;;;;1.27;1.17;;;22.80;44.80;;;;;;5012970;28;20346;-40
2023/10/25 00:44:11;;;;;;;1.20;1.10;;;22.80;44.80;;;;;;5013159;28;20202;-40
2023/10/25 00:46:37;;;;;;;1.38;1.27;;;22.80;44.80;;;;;;5013807;28;20231;-38
2023/10/25 00:49:04;;;;;;;1.67;1.00;;;22.70;44.70;;;;;;5013969;28;20207;-40
2023/10/25 00:51:30;;;;;;;1.05;0.98;;;22.70;44.70;;;;;;5014201;28;20231;-40
2023/10/25 00:53:57;;;;;;;1.95;1.45;;;22.70;44.70;;;;;;5009058;28;20202;-40
2023/10/25 00:56:23;;;;;;;0.80;0.80;;;22.70;44.70;;;;;;5010011;28;20290;-41
2023/10/25 00:58:50;;;;;;;0.98;0.90;;;22.80;44.80;;;;;;5009379;28;20199;-41
2023/10/25 01:01:16;;;;;;;1.83;1.10;;;22.70;44.60;;;;;;5012189;28;20227;-40
2023/10/25 01:03:43;;;;;;;1.00;0.98;;;22.70;44.60;;;;;;5013332;28;20238;-40
2023/10/25 01:06:09;;;;;;;1.00;1.00;;;22.70;44.60;;;;;;5013717;28;20203;-40
2023/10/25 01:08:36;;;;;;;1.70;1.00;;;22.80;44.70;;;;;;5012702;28;20294;-40
2023/10/25 01:11:03;;;;;;;2.40;1.10;;;22.70;44.60;;;;;;5009193;28;20477;-40
2023/10/25 01:13:29;;;;;;;1.60;1.10;;;22.70;44.60;;;;;;5013761;28;20230;-40
2023/10/25 01:15:56;;;;;;;1.05;0.95;;;22.70;44.60;;;;;;5010834;28;20203;-40
2023/10/25 01:18:22;;;;;;;1.88;1.10;;;22.70;44.70;;;;;;5011346;28;20214;-40
2023/10/25 01:20:49;;;;;;;1.65;1.00;;;22.70;44.60;;;;;;5011668;28;20249;-40
2023/10/25 01:23:15;;;;;;;1.05;0.95;;;22.70;44.60;;;;;;5013883;28;20211;-40
2023/10/25 01:25:41;;;;;;;1.15;1.00;;;22.70;44.60;;;;;;5011969;28;20229;-39
2023/10/25 01:28:08;;;;;;;2.20;1.15;;;22.70;44.60;;;;;;5011670;28;20203;-40
2023/10/25 01:30:34;;;;;;;1.27;1.08;;;22.70;44.60;;;;;;5011517;28;20226;-39
2023/10/25 01:33:01;;;;;;;1.35;0.95;;;22.70;44.60;;;;;;5011896;28;20199;-40
2023/10/25 01:35:27;;;;;;;0.90;0.90;;;22.70;44.60;;;;;;5010437;28;20739;-40
2023/10/25 01:37:54;;;;;;;1.25;1.15;;;22.70;44.60;;;;;;5011467;28;20646;-39
2023/10/25 01:40:20;;;;;;;1.45;1.00;;;22.70;44.60;;;;;;5011299;28;20683;-40
2023/10/25 01:42:47;;;;;;;0.80;0.80;;;22.80;44.70;;;;;;5012952;28;20665;-39
2023/10/25 01:45:13;;;;;;;2.63;1.23;;;22.70;44.60;;;;;;5008182;28;20709;-39
2023/10/25 01:47:39;;;;;;;0.82;0.82;;;22.70;44.60;;;;;;5013007;28;20569;-40
2023/10/25 01:50:06;;;;;;;1.45;1.08;;;22.70;44.60;;;;;;5012584;28;20711;-40
2023/10/25 01:52:32;;;;;;;1.27;1.17;;;22.70;44.60;;;;;;5010335;28;20223;-40
2023/10/25 01:54:59;;;;;;;1.10;1.00;;;22.70;44.70;;;;;;5008628;28;20580;-41
2023/10/25 01:57:25;;;;;;;0.75;0.75;;;22.70;44.60;;;;;;5010057;28;20199;-41
2023/10/25 01:59:52;;;;;;;0.90;0.85;;;22.70;44.60;;;;;;5011622;28;20234;-41
2023/10/25 02:02:18;;;;;;;1.45;1.00;;;22.70;44.70;;;;;;5010193;28;20241;-40
2023/10/25 02:04:45;;;;;;;1.00;1.00;;;22.70;44.60;;;;;;5013037;28;20218;-42
2023/10/25 02:07:11;;;;;;;1.42;1.00;;;22.70;44.60;;;;;;5012138;28;20242;-41
2023/10/25 02:09:37;;;;;;;1.25;1.15;;;22.70;44.60;;;;;;5011817;28;20227;-41
2023/10/25 02:12:04;;;;;;;1.27;1.15;;;22.70;44.60;;;;;;5011256;28;20301;-40
2023/10/25 02:14:30;;;;;;;1.13;1.00;;;22.70;44.60;;;;;;5011928;28;20229;-41
2023/10/25 02:16:57;;;;;;;1.75;0.90;;;22.80;44.70;;;;;;5010251;28;20226;-41
2023/10/25 02:19:23;;;;;;;1.67;1.00;;;22.70;44.60;;;;;;5009633;28;20207;-41
2023/10/25 02:21:50;;;;;;;1.83;0.93;;;22.70;44.70;;;;;;5012458;28;20589;-42
2023/10/25 02:24:17;;;;;;;0.93;0.93;;;22.70;44.60;;;;;;5012694;28;20231;-41
2023/10/25 02:26:43;;;;;;;0.90;0.90;;;22.80;44.70;;;;;;5011267;28;20210;-42
2023/10/25 02:29:10;;;;;;;0.95;0.95;;;22.80;44.70;;;;;;5010551;28;20207;-41
2023/10/25 02:31:36;;;;;;;0.80;0.80;;;22.70;44.60;;;;;;5007899;28;20663;-41
2023/10/25 02:34:03;;;;;;;0.90;0.90;;;22.70;44.60;;;;;;5009340;28;20695;-40
2023/10/25 02:36:29;;;;;;;1.20;1.10;;;22.70;44.60;;;;;;5009264;28;20678;-42
2023/10/25 02:38:56;;;;;;;1.27;1.10;;;22.70;44.60;;;;;;5011517;28;20207;-41
2023/10/25 02:41:23;;;;;;;1.85;1.13;;;22.70;44.60;;;;;;5010506;28;20329;-42
2023/10/25 02:43:51;;;;;;;1.13;1.00;;;22.70;44.70;;;;;;5012214;28;20203;-42
2023/10/25 02:46:17;;;;;;;1.73;1.00;;;22.70;44.70;;;;;;5011689;28;20652;-40
2023/10/25 02:48:44;;;;;;;0.93;0.93;;;22.70;44.70;;;;;;5002988;28;20667;-41
2023/10/25 02:51:10;;;;;;;1.25;0.93;;;22.70;44.60;;;;;;5007365;28;20270;-42
2023/10/25 02:53:37;;;;;;;1.50;1.10;;;22.70;44.70;;;;;;5011033;28;20235;-41
2023/10/25 02:56:03;;;;;;;1.23;1.13;;;22.70;44.70;;;;;;5011169;28;20209;-41
2023/10/25 02:58:29;;;;;;;1.70;1.13;;;22.70;44.70;;;;;;5009603;28;20217;-41
2023/10/25 03:00:57;;;;;;;1.25;1.25;;;22.70;44.70;;;;;;5010947;28;20703;-41
2023/10/25 03:03:23;;;;;;;1.42;0.90;;;22.70;44.70;;;;;;5010852;28;20207;-41
2023/10/25 03:05:50;;;;;;;1.10;0.90;;;22.70;44.70;;;;;;5010137;28;20199;-40
2023/10/25 03:08:16;;;;;;;1.00;0.90;;;22.70;44.70;;;;;;5005382;28;20552;-40
2023/10/25 03:10:43;;;;;;;1.05;0.85;;;22.70;44.70;;;;;;5011611;28;20715;-41
2023/10/25 03:13:09;;;;;;;1.10;1.00;;;22.70;44.70;;;;;;5011992;28;20241;-41
2023/10/25 03:15:35;;;;;;;3.70;0.90;;;22.70;44.70;;;;;;5007600;28;20209;-40
2023/10/25 03:18:02;;;;;;;1.17;1.08;;;22.70;44.70;;;;;;5009798;28;20478;-41
2023/10/25 03:20:28;;;;;;;1.40;1.10;;;22.70;44.70;;;;;;5010235;28;20227;-41
2023/10/25 03:22:55;;;;;;;1.23;0.95;;;22.70;44.70;;;;;;5011274;28;20284;-41
2023/10/25 03:25:21;;;;;;;1.92;1.10;;;22.70;44.70;;;;;;5014473;28;20203;-42
2023/10/25 03:27:48;;;;;;;1.23;1.10;;;22.70;44.70;;;;;;5015638;28;20199;-44
2023/10/25 03:30:14;;;;;;;0.90;0.90;;;22.70;44.70;;;;;;5014842;28;20218;-41
2023/10/25 03:32:41;;;;;;;2.63;0.93;;;22.70;44.70;;;;;;5015632;28;20202;-40
2023/10/25 03:35:07;;;;;;;1.00;1.00;;;22.70;44.70;;;;;;5013548;28;20203;-41
2023/10/25 03:37:35;;;;;;;1.80;1.00;;;22.70;44.70;;;;;;5013787;28;20199;-42
2023/10/25 03:40:01;;;;;;;0.90;0.90;;;22.70;44.70;;;;;;5014431;28;20230;-41
2023/10/25 03:42:28;;;;;;;0.90;0.90;;;22.70;44.70;;;;;;5011277;28;20246;-41
2023/10/25 03:44:55;;;;;;;1.08;1.00;;;22.70;44.70;;;;;;5015607;28;20623;-41
2023/10/25 03:47:21;;;;;;;1.00;0.93;;;22.70;44.70;;;;;;5014800;28;20674;-42
2023/10/25 03:49:48;;;;;;;0.90;0.90;;;22.70;44.90;;;;;;5014908;28;20703;-41
2023/10/25 03:52:14;;;;;;;0.90;0.90;;;22.70;44.90;;;;;;5012003;28;20656;-41
2023/10/25 03:54:40;;;;;;;1.38;1.27;;;22.70;44.90;;;;;;5014660;28;20203;-42
2023/10/25 03:57:07;;;;;;;0.80;0.80;;;22.70;44.90;;;;;;5014332;28;20366;-41
2023/10/25 03:59:33;;;;;;;1.10;0.98;;;22.70;44.90;;;;;;5009908;28;20231;-41
2023/10/25 04:02:00;;;;;;;1.35;1.00;;;22.70;44.90;;;;;;5015084;28;20230;-42
2023/10/25 04:04:26;;;;;;;1.17;1.08;;;22.70;44.90;;;;;;5014328;28;20297;-41
2023/10/25 04:06:53;;;;;;;1.05;0.98;;;22.70;44.90;;;;;;5015139;28;20242;-40
2023/10/25 04:09:20;;;;;;;1.60;1.00;;;22.70;44.90;;;;;;5013136;28;20227;-41
2023/10/25 04:11:46;;;;;;;2.35;0.93;;;22.70;44.90;;;;;;5011495;28;20257;-41
2023/10/25 04:14:13;;;;;;;1.10;0.93;;;22.70;44.90;;;;;;5012804;28;20213;-42
2023/10/25 04:16:39;;;;;;;1.10;1.05;;;22.70;44.90;;;;;;5010476;28;20207;-42
2023/10/25 04:19:05;;;;;;;1.80;1.00;;;22.70;44.90;;;;;;5014152;28;20219;-41
2023/10/25 04:21:32;;;;;;;2.13;1.23;;;22.70;44.90;;;;;;5014450;28;20321;-41
2023/10/25 04:23:58;;;;;;;2.10;1.10;;;22.70;44.90;;;;;;5013860;28;20208;-42
2023/10/25 04:26:25;;;;;;;1.90;1.10;;;22.70;45.00;;;;;;5013523;28;20195;-42
2023/10/25 04:28:51;;;;;;;1.98;0.98;;;22.70;44.90;;;;;;5012577;28;20199;-41
2023/10/25 04:31:20;;;;;;;0.80;0.80;;;22.70;45.00;;;;;;5013416;28;20211;-41
2023/10/25 04:33:47;;;;;;;1.83;0.90;;;22.70;44.90;;;;;;5009579;28;20298;-40
2023/10/25 04:36:13;;;;;;;2.85;1.00;;;22.70;44.90;;;;;;5014912;28;20222;-41
2023/10/25 04:38:40;;;;;;;1.45;1.17;;;22.70;44.90;;;;;;5013352;28;20211;-41
2023/10/25 04:41:06;;;;;;;1.33;0.93;;;22.70;44.90;;;;;;5013071;28;20313;-40
2023/10/25 04:43:33;;;;;;;1.85;1.00;;;22.70;44.90;;;;;;5013340;28;20740;-41
2023/10/25 04:45:59;;;;;;;1.20;1.00;;;22.70;45.00;;;;;;5014362;28;20290;-41
2023/10/25 04:48:26;;;;;;;1.58;0.90;;;22.70;44.90;;;;;;5011382;28;20199;-42
2023/10/25 04:50:52;;;;;;;1.05;1.00;;;22.70;45.00;;;;;;5011719;28;20219;-42
2023/10/25 04:53:18;;;;;;;2.47;1.10;;;22.70;44.90;;;;;;5012117;28;20286;-41
2023/10/25 04:55:45;;;;;;;1.38;1.27;;;22.70;45.00;;;;;;5013029;28;20290;-42
2023/10/25 04:58:11;;;;;;;0.90;0.90;;;22.70;44.90;;;;;;5013890;28;20221;-41
2023/10/25 05:00:38;;;;;;;0.80;0.80;;;22.70;45.60;;;;;;5013880;28;20318;-41
2023/10/25 05:03:05;;;;;;;1.30;0.80;;;22.70;45.00;;;;;;5013693;28;20227;-42
2023/10/25 05:05:32;;;;;;;2.13;1.00;;;22.70;45.00;;;;;;5013476;28;20207;-41
2023/10/25 05:07:59;;;;;;;1.95;1.33;;;22.70;45.00;;;;;;5009431;28;20241;-43
2023/10/25 05:10:25;;;;;;;1.00;0.90;;;22.70;45.00;;;;;;5011813;28;20219;-40
2023/10/25 05:12:52;;;;;;;1.17;1.08;;;22.70;45.00;;;;;;5011878;28;20206;-42
2023/10/25 05:15:18;;;;;;;1.25;0.88;;;22.70;45.00;;;;;;5013114;28;20203;-41
2023/10/25 05:17:44;;;;;;;1.65;0.90;;;22.70;45.00;;;;;;5013450;28;20246;-41
2023/10/25 05:20:11;;;;;;;2.22;1.17;;;22.70;45.00;;;;;;5012934;28;20317;-40
2023/10/25 05:22:37;;;;;;;1.15;0.90;;;22.70;45.00;;;;;;5013416;28;20235;-41
2023/10/25 05:25:04;;;;;;;2.60;0.90;;;22.70;45.00;;;;;;5007844;28;20203;-40
2023/10/25 05:27:30;;;;;;;1.10;0.90;;;22.70;45.00;;;;;;5011381;28;20207;-41
2023/10/25 05:29:59;;;;;;;2.22;0.90;;;22.70;45.00;;;;;;5012587;28;20305;-40
2023/10/25 05:32:25;;;;;;;1.75;0.88;;;22.70;45.00;;;;;;5012983;28;20294;-41
2023/10/25 05:34:52;;;;;;;1.38;0.90;;;22.70;45.00;;;;;;5012168;28;20196;-41
2023/10/25 05:37:18;;;;;;;1.20;1.10;;;22.70;45.00;;;;;;5013127;28;20206;-40
2023/10/25 05:39:45;;;;;;;1.85;1.08;;;22.70;45.00;;;;;;5010169;28;20230;-42
2023/10/25 05:42:11;;;;;;;1.17;0.95;;;22.70;45.00;;;;;;5008863;28;20325;-40
2023/10/25 05:44:37;;;;;;;0.93;0.90;;;22.70;45.00;;;;;;5009652;28;20203;-39
2023/10/25 05:47:04;;;;;;;1.05;0.90;;;22.70;45.00;;;;;;5011955;28;20286;-41
2023/10/25 05:49:30;;;;;;;0.90;0.90;;;22.70;45.00;;;;;;5010682;28;20219;-41
2023/10/25 05:51:57;;;;;;;1.20;0.80;;;22.70;45.00;;;;;;5012512;28;20211;-41
2023/10/25 05:54:23;;;;;;;0.90;0.80;;;22.70;45.00;;;;;;5011619;28;20302;-41
2023/10/25 05:56:50;;;;;;;0.80;0.80;;;22.70;45.00;;;;;;5012838;28;20202;-42
2023/10/25 05:59:16;;;;;;;1.15;0.90;;;22.70;45.00;;;;;;5006445;28;20254;-41
2023/10/25 06:01:43;;;;;;;0.90;0.90;;;22.70;45.00;;;;;;5008429;28;20223;-40
2023/10/25 06:04:09;;;;;;;1.58;1.00;;;22.70;45.00;;;;;;5010552;28;20203;-40
2023/10/25 06:06:36;;;;;;;0.73;0.73;;;22.70;45.00;;;;;;5010881;28;20290;-41
2023/10/25 06:09:02;;;;;;;1.27;0.90;;;22.70;45.00;;;;;;5012439;28;20230;-41
2023/10/25 06:11:29;;;;;;;1.00;0.90;;;22.70;44.90;;;;;;5012602;28;20207;-40
2023/10/25 06:13:55;;;;;;;0.90;0.90;;;22.70;45.00;;;;;;5011533;28;20195;-40
2023/10/25 06:16:22;;;;;;;2.35;0.80;;;22.70;45.00;;;;;;5009428;28;20207;-41
2023/10/25 06:18:48;;;;;;;1.20;1.00;;;22.70;45.00;;;;;;5004186;28;20230;-42
2023/10/25 06:21:15;;;;;;;1.30;0.85;;;22.70;44.90;;;;;;5010204;28;20213;-41
2023/10/25 06:23:41;;;;;;;1.15;0.90;;;22.60;45.20;;;;;;5007061;28;20286;-40
2023/10/25 06:26:07;;;;;;;0.88;0.82;;;22.60;45.20;;;;;;5010692;28;20202;-40
2023/10/25 06:28:34;;;;;;;1.27;0.80;;;22.60;45.20;;;;;;5007132;28;20318;-41
2023/10/25 06:31:01;;;;;;;0.88;0.75;;;22.60;45.10;;;;;;5009284;28;20199;-42
2023/10/25 06:33:27;;;;;;;1.33;0.90;;;22.60;45.10;;;;;;5007211;28;20213;-42
2023/10/25 06:35:54;;;;;;;1.77;1.05;;;22.60;45.10;;;;;;5011741;28;20226;-40
2023/10/25 06:38:20;;;;;;;1.00;0.80;;;22.60;45.00;;;;;;5009070;28;20215;-40
2023/10/25 06:40:47;;;;;;;2.20;0.98;;;22.60;45.00;;;;;;5009513;28;20199;-40
2023/10/25 06:43:13;;;;;;;2.28;1.23;;;22.60;45.00;;;;;;5009792;28;20239;-41
2023/10/25 06:45:39;;;;;;;1.08;0.90;;;22.60;45.10;;;;;;5010772;28;20743;-40
2023/10/25 06:48:06;;;;;;;1.00;0.90;;;22.60;45.00;;;;;;5008231;28;20672;-40
2023/10/25 06:50:32;;;;;;;1.42;1.10;;;22.60;45.00;;;;;;5006074;28;20638;-41
2023/10/25 06:52:59;;;;;;;3.40;1.10;;;22.60;45.10;;;;;;5010488;28;20269;-40
2023/10/25 06:55:25;;;;;;;1.85;1.05;;;22.60;45.00;;;;;;5011115;28;20213;-40
2023/10/25 06:57:52;;;;;;;2.33;1.08;;;22.60;45.10;;;;;;5009603;28;20242;-42
2023/10/25 07:00:18;;;;;;;1.42;1.00;;;22.60;45.00;;;;;;5008344;28;20227;-40
2023/10/25 07:02:45;;;;;;;2.13;0.95;;;22.60;45.10;;;;;;5009787;28;20249;-41
2023/10/25 07:05:11;;;;;;;3.08;1.48;;;22.60;45.00;;;;;;5007700;28;20402;-40
2023/10/25 07:07:38;;;;;;;0.85;0.85;;;22.60;45.10;;;;;;5008623;28;20674;-40
2023/10/25 07:10:04;;;;;;;2.25;1.10;;;22.60;45.00;;;;;;5009168;28;20226;-41
2023/10/25 07:12:31;;;;;;;2.63;1.23;;;22.60;45.10;;;;;;5010471;28;20729;-40
2023/10/25 07:14:57;;;;;;;7.13;1.55;;;22.60;45.10;;;;;;5005494;28;20881;-41
2023/10/25 07:17:24;;;;;;;3.08;1.30;;;22.60;45.00;;;;;;4982275;28;20234;-41
2023/10/25 07:19:50;;;;;;;1.30;1.15;;;22.60;45.30;;;;;;5013810;28;20679;-42
2023/10/25 07:22:17;;;;;;;3.60;1.27;;;22.60;45.20;;;;;;5009679;28;20223;-41
2023/10/25 07:24:43;;;;;;;3.50;1.00;;;22.60;45.30;;;;;;5008268;28;20282;-43
2023/10/25 07:27:10;;;;;;;1.77;1.15;;;22.60;45.10;;;;;;5007433;28;20242;-41
2023/10/25 07:29:37;;;;;;;2.67;1.23;;;22.50;44.90;;;;;;5009210;28;20305;-41
2023/10/25 07:32:03;;;;;;;2.35;1.05;;;22.60;44.90;;;;;;5011333;28;20206;-42
2023/10/25 07:34:29;;;;;;;1.80;1.23;;;22.50;44.70;;;;;;5008489;28;20199;-41
2023/10/25 07:36:56;;;;;;;1.55;1.30;;;22.50;44.50;;;;;;5009400;28;20302;-42
2023/10/25 07:39:22;;;;;;;2.85;1.33;;;22.50;44.50;;;;;;5010373;28;20335;-45
2023/10/25 07:41:49;;;;;;;1.10;1.00;;;22.50;44.60;;;;;;5002786;28;20206;-45
2023/10/25 07:44:15;;;;;;;1.30;0.90;;;22.50;44.50;;;;;;5007664;28;20207;-45
2023/10/25 07:46:42;;;;;;;1.23;1.10;;;22.50;44.50;;;;;;5009081;28;20217;-44
2023/10/25 07:49:08;;;;;;;1.10;1.00;;;22.50;44.50;;;;;;5006445;28;20215;-45
2023/10/25 07:51:36;;;;;;;2.22;1.17;;;22.50;44.40;;;;;;5011317;28;20227;-44
2023/10/25 07:54:02;;;;;;;1.60;1.10;;;22.40;44.40;;;;;;5010224;28;20226;-45
2023/10/25 07:56:29;;;;;;;2.30;1.30;;;22.50;44.40;;;;;;5011745;28;20207;-44
2023/10/25 07:58:55;;;;;;;2.17;1.30;;;22.50;44.30;;;;;;5004348;28;20227;-44
2023/10/25 08:01:22;;;;;;;2.05;0.98;;;22.50;44.30;;;;;;5008389;28;20203;-44
2023/10/25 08:03:48;;;;;;;1.52;1.10;;;22.50;44.30;;;;;;4998394;28;20331;-48
2023/10/25 08:06:14;;;;;;;1.85;1.10;;;22.50;44.10;;;;;;5009530;28;20211;-40
2023/10/25 08:08:41;;;;;;;1.40;1.25;;;22.50;44.30;;;;;;5012051;28;20223;-48
2023/10/25 08:11:07;;;;;;;3.00;1.10;;;22.40;44.00;;;;;;5013390;28;20238;-52
2023/10/25 08:13:34;;;;;;;1.92;0.80;;;22.50;44.30;;;;;;5014579;28;20207;-54
2023/10/25 08:16:00;;;;;;;1.40;1.08;;;22.50;44.20;;;;;;5011554;28;20660;-47
2023/10/25 08:18:27;;;;;;;1.20;1.00;;;22.50;44.00;;;;;;5021128;28;20811;-47
2023/10/25 08:20:53;;;;;;;1.15;0.93;;;22.50;43.90;;;;;;5013176;28;20200;-48
2023/10/25 08:23:19;;;;;;;1.60;1.27;;;22.50;43.90;;;;;;5004698;28;20349;-40
2023/10/25 08:25:45;;;;;;;2.38;1.33;;;22.50;43.90;;;;;;5010852;28;20744;-39
2023/10/25 08:28:12;;;;;;;1.20;1.10;;;22.50;44.00;;;;;;5010623;28;20688;-39
2023/10/25 08:30:38;;;;;;;2.80;1.10;;;22.50;43.70;;;;;;5014517;28;20672;-39
2023/10/25 08:33:05;;;;;;;1.42;1.15;;;22.50;43.70;;;;;;5010083;28;20314;-40
2023/10/25 08:35:31;;;;;;;1.13;1.00;;;22.50;43.80;;;;;;5014250;28;20207;-41
2023/10/25 08:37:58;;;;;;;3.55;1.40;;;22.50;43.90;;;;;;5014523;28;20321;-38
2023/10/25 08:40:24;;;;;;;2.03;1.10;;;22.50;43.90;;;;;;5010149;28;20211;-40
2023/10/25 08:42:51;;;;;;;1.13;1.00;;;22.50;44.10;;;;;;5013708;28;20230;-41
2023/10/25 08:45:17;;;;;;;1.25;1.13;;;22.50;44.00;;;;;;5014239;28;20674;-39
2023/10/25 08:47:43;;;;;;;1.63;0.93;;;22.50;44.20;;;;;;5013888;28;20215;-40
2023/10/25 08:50:10;;;;;;;0.98;0.95;;;22.50;44.30;;;;;;5009689;28;20684;-39
2023/10/25 08:52:36;;;;;;;1.92;1.10;;;22.50;44.30;;;;;;5010379;28;20206;-39
2023/10/25 08:55:03;;;;;;;1.40;1.30;;;22.50;44.20;;;;;;5010157;28;20742;-42
2023/10/25 08:57:29;;;;;;;2.53;1.20;;;22.50;44.10;;;;;;5000678;28;20207;-55
2023/10/25 08:59:56;;;;;;;1.52;1.00;;;22.60;44.00;;;;;;5012578;28;20195;-46
2023/10/25 09:02:22;;;;;;;0.90;0.90;;;22.60;43.90;;;;;;5012976;28;20231;-45
2023/10/25 09:04:49;;;;;;;1.60;1.00;;;22.70;44.30;;;;;;5013142;28;20207;-44
2023/10/25 09:07:15;;;;;;;1.38;0.93;;;22.70;44.50;;;;;;5016095;28;20199;-44
2023/10/25 09:09:42;;;;;;;2.05;1.40;;;22.70;44.40;;;;;;5009659;28;20225;-44
2023/10/25 09:12:08;;;;;;;1.73;1.10;;;22.70;44.60;;;;;;5010678;28;20215;-43
2023/10/25 09:14:34;;;;;;;1.48;0.90;;;22.70;44.30;;;;;;5008232;28;20739;-50
2023/10/25 09:17:01;;;;;;;1.17;1.17;;;22.80;44.50;;;;;;5011096;28;20571;-49
2023/10/25 09:19:27;;;;;;;1.33;1.23;;;22.70;44.40;;;;;;5010837;28;20255;-47
2023/10/25 09:21:54;;;;;;;1.75;1.13;;;22.80;44.40;;;;;;5009180;28;20242;-48
2023/10/25 09:24:20;;;;;;;1.20;0.90;;;22.80;44.30;;;;;;5010759;28;20237;-46
2023/10/25 09:26:47;;;;;;;1.17;0.98;;;22.80;45.00;;;;;;5013465;28;20289;-45
2023/10/25 09:29:14;;;;;;;1.27;1.00;;;22.80;44.30;;;;;;5011017;28;20722;-42
2023/10/25 09:31:40;;;;;;;1.77;1.40;;;22.80;44.50;;;;;;5013308;28;20265;-44
2023/10/25 09:34:09;;;;;;;0.90;0.90;;;22.80;44.40;;;;;;5011925;28;20377;-44
2023/10/25 09:36:36;;;;;;;1.05;0.90;;;22.90;44.40;;;;;;5002617;28;20215;-43
2023/10/25 09:39:04;;;;;;;1.42;1.10;;;22.90;44.30;;;;;;4992685;28;20238;-47
2023/10/25 09:41:31;;;;;;;1.00;0.98;;;22.90;44.30;;;;;;4999133;28;20231;-48
2023/10/25 09:43:59;;;;;;;1.55;0.90;;;22.90;44.50;;;;;;4992485;28;20238;-40
2023/10/25 09:46:25;;;;;;;1.58;0.93;;;22.90;44.40;;;;;;4995009;28;20419;-40
2023/10/25 09:48:52;;;;;;;1.17;1.08;;;22.80;44.40;;;;;;5002653;28;20642;-43
2023/10/25 09:51:19;;;;;;;1.48;1.05;;;22.80;44.40;;;;;;5007567;28;20206;-41
2023/10/25 09:53:46;;;;;;;2.20;1.10;;;22.80;44.50;;;;;;5010574;28;20651;-39
2023/10/25 09:56:12;;;;;;;1.80;1.13;;;22.80;44.50;;;;;;5002457;28;20859;-42
2023/10/25 09:58:38;;;;;;;0.85;0.85;;;22.80;44.40;;;;;;5009897;28;20384;-41
2023/10/25 10:01:05;;;;;;;1.10;1.00;;;22.80;44.40;;;;;;5009184;28;20200;-41
2023/10/25 10:03:32;;;;;;;4.63;1.05;;;22.80;44.40;;;;;;5005030;28;20239;-41
2023/10/25 10:05:58;;;;;;;3.10;1.02;;;22.90;44.50;;;;;;5011777;28;20269;-41
2023/10/25 10:08:25;;;;;;;1.88;0.80;;;22.90;45.10;;;;;;5009346;28;20250;-40
2023/10/25 10:10:52;;;;;;;1.45;1.00;;;22.90;44.40;;;;;;5008785;28;20204;-40
2023/10/25 10:13:18;;;;;;;0.93;0.80;;;22.90;44.40;;;;;;5008889;28;20207;-40
2023/10/25 10:15:45;;;;;;;1.70;1.20;;;22.90;44.40;;;;;;5007194;28;20651;-40
2023/10/25 10:18:11;;;;;;;1.40;1.27;;;22.90;44.40;;;;;;5008177;28;20588;-42
2023/10/25 10:20:37;;;;;;;1.48;1.00;;;22.90;44.40;;;;;;5009794;28;20302;-41
2023/10/25 10:23:04;;;;;;;1.95;1.00;;;22.90;44.40;;;;;;5006995;28;20249;-43
2023/10/25 10:25:30;;;;;;;1.20;1.10;;;22.90;44.40;;;;;;5000682;28;20203;-41
2023/10/25 10:27:57;;;;;;;2.22;1.10;;;22.90;44.40;;;;;;5006119;28;20262;-44
2023/10/25 10:30:23;;;;;;;1.63;0.95;;;22.90;44.40;;;;;;5003956;28;20285;-43
2023/10/25 10:32:50;;;;;;;1.80;1.05;;;22.90;44.40;;;;;;5009539;28;20675;-42
2023/10/25 10:35:16;;;;;;;1.67;1.23;;;22.90;44.40;;;;;;5009095;28;20678;-42
2023/10/25 10:37:43;;;;;;;1.65;1.27;;;22.90;44.50;;;;;;5004667;28;20593;-41
2023/10/25 10:40:09;;;;;;;1.30;1.10;;;22.90;44.40;;;;;;5004877;28;20237;-43
2023/10/25 10:42:36;;;;;;;1.50;0.90;;;22.90;44.50;;;;;;5001793;28;20207;-42
2023/10/25 10:45:02;;;;;;;1.25;1.00;;;22.90;44.50;;;;;;5002269;28;20254;-43
2023/10/25 10:47:29;;;;;;;2.75;1.10;;;22.90;45.10;;;;;;5001307;28;20250;-43
2023/10/25 10:49:56;;;;;;;3.63;1.00;;;22.90;44.50;;;;;;5006518;28;20208;-42
2023/10/25 10:52:23;;;;;;;1.60;1.00;;;22.90;44.50;;;;;;5006762;28;20572;-42
2023/10/25 10:54:49;;;;;;;1.20;1.13;;;22.90;44.50;;;;;;5008866;28;20199;-42
2023/10/25 10:57:16;;;;;;;0.80;0.80;;;22.90;44.40;;;;;;5010466;28;20215;-41
2023/10/25 10:59:42;;;;;;;1.02;1.00;;;22.90;44.40;;;;;;5007167;28;20735;-42
2023/10/25 11:02:09;;;;;;;0.73;0.70;;;22.90;44.50;;;;;;5009681;28;20671;-41
2023/10/25 11:04:35;;;;;;;1.90;0.82;;;22.90;44.40;;;;;;5010144;28;20601;-43
2023/10/25 11:07:02;;;;;;;1.67;1.02;;;22.90;44.40;;;;;;5008529;28;20286;-42
2023/10/25 11:09:28;;;;;;;1.08;0.88;;;22.90;44.50;;;;;;5005304;28;20231;-42
2023/10/25 11:11:54;;;;;;;0.68;0.68;;;22.90;44.40;;;;;;5010519;28;20203;-44
2023/10/25 11:14:21;;;;;;;1.02;0.98;;;22.90;44.50;;;;;;5007753;28;20207;-42
2023/10/25 11:16:48;;;;;;;2.78;1.75;;;22.90;44.50;;;;;;5007899;28;20291;-40
2023/10/25 11:19:14;;;;;;;8.68;5.75;;;22.90;45.20;;;;;;5006953;28;20618;-42
2023/10/25 11:21:40;;;;;;;32.30;13.45;;;22.90;44.60;;;;;;5007006;28;20203;-42
2023/10/25 11:24:07;;;;;;;34.30;15.48;;;22.90;44.60;;;;;;5009141;28;20266;-46
2023/10/25 11:26:37;;;;;;;33.83;15.93;;;22.90;44.80;;;;;;5008592;28;20210;-44
2023/10/25 11:29:04;;;;;;;29.15;16.20;;;22.90;44.90;;;;;;5009004;28;20222;-47
2023/10/25 11:31:31;;;;;;;32.15;15.05;;;22.90;45.10;;;;;;5007810;28;20203;-46
2023/10/25 11:33:58;;;;;;;29.63;13.60;;;22.90;45.20;;;;;;5008709;28;20567;-44
2023/10/25 11:36:25;;;;;;;28.88;13.93;;;22.90;45.90;;;;;;5010506;28;20218;-47
2023/10/25 11:38:51;;;;;;;31.65;13.27;;;22.90;45.30;;;;;;5007766;28;20244;-45
2023/10/25 11:41:18;;;;;;;35.67;13.68;;;22.90;45.40;;;;;;5007507;28;20945;-45
2023/10/25 11:43:44;;;;;;;28.17;13.88;;;22.90;45.50;;;;;;5008380;28;20231;-47
2023/10/25 11:46:11;;;;;;;23.75;13.13;;;23.00;45.50;;;;;;5015462;28;20203;-48
2023/10/25 11:48:37;;;;;;;27.23;12.18;;;22.90;45.40;;;;;;5010796;28;20442;-44
2023/10/25 11:51:04;;;;;;;26.13;12.23;;;22.90;45.10;;;;;;5011625;28;20209;-48
2023/10/25 11:53:30;;;;;;;23.52;12.13;;;22.90;45.10;;;;;;5008335;28;20572;-46
2023/10/25 11:55:58;;;;;;;25.73;11.20;;;22.90;45.50;;;;;;5010641;28;20237;-44
2023/10/25 11:58:25;;;;;;;20.85;10.23;;;22.90;45.30;;;;;;5011992;28;20255;-45
2023/10/25 12:00:51;;;;;;;20.85;10.32;;;22.90;45.30;;;;;;5015010;28;20660;-44
2023/10/25 12:03:18;;;;;;;20.33;9.95;;;22.90;45.20;;;;;;5012616;28;20703;-44
2023/10/25 12:05:44;;;;;;;23.35;10.82;;;22.90;45.10;;;;;;5012857;28;20652;-44
2023/10/25 12:08:11;;;;;;;19.65;9.23;;;22.90;45.20;;;;;;5010467;28;20245;-44
2023/10/25 12:10:37;;;;;;;16.70;9.07;;;22.90;45.20;;;;;;5009968;28;20211;-44
2023/10/25 12:13:04;;;;;;;16.50;8.52;;;22.90;45.10;;;;;;5012581;28;20621;-43
2023/10/25 12:15:30;;;;;;;14.45;8.27;;;22.90;45.00;;;;;;5013935;28;20261;-44
2023/10/25 12:17:56;;;;;;;20.50;8.93;;;22.90;44.90;;;;;;5012841;28;20222;-48
2023/10/25 12:20:23;;;;;;;15.55;7.80;;;22.90;45.00;;;;;;5013363;28;20203;-49
2023/10/25 12:22:49;;;;;;;15.48;8.25;;;22.90;44.80;;;;;;5011621;28;20294;-44
2023/10/25 12:25:16;;;;;;;18.65;8.57;;;22.80;44.80;;;;;;5012629;28;20298;-44
2023/10/25 12:27:44;;;;;;;12.20;6.80;;;22.80;44.60;;;;;;5009676;28;20227;-49
2023/10/25 12:30:10;;;;;;;13.95;7.00;;;22.80;44.50;;;;;;5003949;28;20250;-46
2023/10/25 12:32:37;;;;;;;15.02;6.90;;;22.80;44.60;;;;;;5011828;28;20206;-49
2023/10/25 12:35:03;;;;;;;15.35;6.90;;;22.80;44.50;;;;;;5013502;28;20209;-43
2023/10/25 12:37:30;;;;;;;13.25;7.13;;;22.80;45.10;;;;;;5012683;28;20223;-46
2023/10/25 12:39:57;;;;;;;15.20;6.15;;;22.80;44.50;;;;;;5012587;28;20659;-44